createdAt,value
2019-03-01T00:02:28.632Z,6.20
2019-03-01T00:05:27.430Z,6.20
2019-03-01T00:08:20.477Z,6.20
2019-03-01T00:11:37.533Z,6.20
2019-03-01T00:14:35.834Z,6.10
2019-03-01T00:17:34.036Z,6.00
2019-03-01T00:20:54.604Z,6.00
2019-03-01T00:23:47.705Z,6.00
2019-03-01T00:26:31.234Z,6.00
2019-03-01T00:29:36.381Z,6.00
2019-03-01T00:32:35.107Z,6.10
2019-03-01T00:35:48.568Z,6.10
2019-03-01T00:38:50.573Z,6.10
2019-03-01T00:42:01.220Z,6.10
2019-03-01T00:44:32.540Z,6.20
2019-03-01T00:47:02.018Z,6.20
2019-03-01T00:49:32.935Z,6.20
2019-03-01T00:52:02.384Z,6.20
2019-03-01T00:54:31.992Z,6.30
2019-03-01T00:57:01.430Z,6.30
2019-03-01T00:59:30.914Z,6.30
2019-03-01T01:02:00.370Z,6.30
2019-03-01T01:04:30.310Z,6.40
2019-03-01T01:06:59.741Z,6.40
2019-03-01T01:09:29.196Z,6.40
2019-03-01T01:11:58.639Z,6.40
2019-03-01T01:14:28.083Z,6.40
2019-03-01T01:16:57.540Z,6.40
2019-03-01T01:19:27.363Z,6.50
2019-03-01T01:21:56.809Z,6.40
2019-03-01T01:24:26.304Z,6.30
2019-03-01T01:26:56.096Z,6.40
2019-03-01T01:29:25.588Z,6.30
2019-03-01T01:31:55.042Z,6.20
2019-03-01T01:34:24.823Z,6.30
2019-03-01T01:36:54.645Z,6.30
2019-03-01T01:39:24.119Z,6.30
2019-03-01T01:41:53.582Z,6.30
2019-03-01T01:44:23.045Z,6.30
2019-03-01T01:46:52.507Z,6.40
2019-03-01T01:49:21.969Z,6.30
2019-03-01T01:51:51.512Z,6.30
2019-03-01T01:54:20.983Z,6.40
2019-03-01T01:56:50.445Z,6.40
2019-03-01T01:59:19.904Z,6.40
2019-03-01T02:01:49.351Z,6.40
2019-03-01T02:04:18.768Z,6.40
2019-03-01T02:06:48.263Z,6.40
2019-03-01T02:09:24.553Z,6.30
2019-03-01T02:11:54.097Z,6.30
2019-03-01T02:14:23.669Z,6.30
2019-03-01T02:16:53.524Z,6.20
2019-03-01T02:19:22.978Z,6.20
2019-03-01T02:21:52.427Z,6.30
2019-03-01T02:24:21.848Z,6.30
2019-03-01T02:26:51.303Z,6.30
2019-03-01T02:29:20.772Z,6.30
2019-03-01T02:31:56.087Z,6.30
2019-03-01T02:34:25.562Z,6.30
2019-03-01T02:36:55.017Z,6.30
2019-03-01T02:39:24.499Z,6.30
2019-03-01T02:41:53.947Z,6.30
2019-03-01T02:44:23.503Z,6.30
2019-03-01T02:46:52.931Z,6.30
2019-03-01T02:49:22.416Z,6.20
2019-03-01T02:51:51.866Z,6.10
2019-03-01T02:54:21.299Z,6.10
2019-03-01T02:56:50.770Z,6.10
2019-03-01T02:59:20.219Z,6.10
2019-03-01T03:01:49.692Z,6.10
2019-03-01T03:04:19.126Z,6.10
2019-03-01T03:07:00.221Z,6.10
2019-03-01T03:09:30.000Z,6.10
2019-03-01T03:11:59.427Z,6.00
2019-03-01T03:14:28.859Z,6.10
2019-03-01T03:16:58.422Z,6.00
2019-03-01T03:19:27.852Z,6.00
2019-03-01T03:21:57.323Z,6.00
2019-03-01T03:24:26.766Z,6.10
2019-03-01T03:26:56.195Z,6.10
2019-03-01T03:29:26.783Z,6.10
2019-03-01T03:31:56.263Z,6.00
2019-03-01T03:34:25.693Z,6.10
2019-03-01T03:36:55.152Z,6.10
2019-03-01T03:39:24.600Z,6.10
2019-03-01T03:41:54.039Z,6.10
2019-03-01T03:44:23.494Z,6.00
2019-03-01T03:46:52.985Z,6.10
2019-03-01T03:49:22.434Z,6.00
2019-03-01T03:51:51.894Z,6.00
2019-03-01T03:54:21.374Z,6.00
2019-03-01T03:56:51.274Z,6.00
2019-03-01T03:59:20.726Z,6.00
2019-03-01T04:01:50.178Z,6.00
2019-03-01T04:04:19.619Z,6.10
2019-03-01T04:06:49.068Z,6.00
2019-03-01T04:09:19.319Z,6.10
2019-03-01T04:11:48.756Z,6.00
2019-03-01T04:14:18.375Z,6.10
2019-03-01T04:16:47.853Z,6.10
2019-03-01T04:19:17.670Z,6.10
2019-03-01T04:21:47.481Z,6.20
2019-03-01T04:24:17.288Z,6.20
2019-03-01T04:26:46.765Z,6.20
2019-03-01T04:29:16.197Z,6.20
2019-03-01T04:31:45.641Z,6.20
2019-03-01T04:34:15.727Z,6.10
2019-03-01T04:36:45.181Z,6.20
2019-03-01T04:39:15.267Z,6.10
2019-03-01T04:41:44.687Z,6.10
2019-03-01T04:44:14.112Z,6.00
2019-03-01T04:46:43.575Z,6.00
2019-03-01T04:49:13.040Z,6.00
2019-03-01T04:51:42.496Z,6.00
2019-03-01T04:54:11.916Z,6.10
2019-03-01T04:56:41.815Z,6.10
2019-03-01T04:59:11.240Z,6.10
2019-03-01T05:01:41.041Z,6.10
2019-03-01T05:04:12.139Z,6.10
2019-03-01T05:06:41.713Z,6.10
2019-03-01T05:09:11.524Z,6.20
2019-03-01T05:11:40.966Z,6.20
2019-03-01T05:14:10.383Z,6.20
2019-03-01T05:16:39.830Z,6.30
2019-03-01T05:19:09.287Z,6.30
2019-03-01T05:21:38.725Z,6.30
2019-03-01T05:24:08.456Z,6.30
2019-03-01T05:26:37.877Z,6.30
2019-03-01T05:29:07.356Z,6.30
2019-03-01T05:31:36.771Z,6.30
2019-03-01T05:34:06.804Z,6.20
2019-03-01T05:36:36.716Z,6.20
2019-03-01T05:39:06.526Z,6.20
2019-03-01T05:41:35.961Z,6.20
2019-03-01T05:44:05.437Z,6.20
2019-03-01T05:46:34.871Z,6.20
2019-03-01T05:49:04.321Z,6.10
2019-03-01T05:51:33.784Z,6.00
2019-03-01T05:54:03.225Z,6.00
2019-03-01T05:56:32.664Z,6.00
2019-03-01T05:59:13.338Z,6.00
2019-03-01T06:02:22.357Z,6.10
2019-03-01T06:05:05.257Z,6.10
2019-03-01T06:08:33.655Z,6.10
2019-03-01T06:11:25.461Z,6.20
2019-03-01T06:14:12.178Z,6.10
2019-03-01T06:17:22.697Z,6.10
2019-03-01T06:20:16.524Z,6.10
2019-03-01T06:23:12.858Z,6.20
2019-03-01T06:26:37.839Z,6.20
2019-03-01T06:29:27.897Z,6.20
2019-03-01T06:32:59.497Z,6.20
2019-03-01T06:35:57.608Z,6.30
2019-03-01T06:39:19.007Z,6.30
2019-03-01T06:42:31.931Z,6.40
2019-03-01T06:45:29.669Z,6.40
2019-03-01T06:47:59.104Z,6.50
2019-03-01T06:50:41.742Z,6.50
2019-03-01T06:53:11.176Z,6.50
2019-03-01T06:55:51.802Z,6.50
2019-03-01T06:58:32.976Z,6.60
2019-03-01T07:01:10.023Z,6.60
2019-03-01T07:03:39.465Z,6.60
2019-03-01T07:06:08.877Z,6.70
2019-03-01T07:08:38.329Z,6.70
2019-03-01T07:11:07.747Z,6.80
2019-03-01T07:13:37.171Z,6.80
2019-03-01T07:16:06.590Z,6.80
2019-03-01T07:18:36.033Z,6.80
2019-03-01T07:21:05.743Z,6.90
2019-03-01T07:23:36.985Z,6.80
2019-03-01T07:26:06.279Z,6.90
2019-03-01T07:28:35.739Z,7.00
2019-03-01T07:31:07.078Z,7.00
2019-03-01T07:33:36.728Z,7.10
2019-03-01T07:36:06.477Z,7.10
2019-03-01T07:38:36.013Z,7.00
2019-03-01T07:41:05.380Z,7.00
2019-03-01T07:43:34.843Z,7.10
2019-03-01T07:46:04.254Z,7.10
2019-03-01T07:48:33.691Z,7.10
2019-03-01T07:51:03.096Z,7.10
2019-03-01T07:53:35.971Z,7.10
2019-03-01T07:56:05.113Z,7.10
2019-03-01T07:58:34.749Z,7.10
2019-03-01T08:01:04.175Z,7.10
2019-03-01T08:03:33.602Z,7.10
2019-03-01T08:06:03.202Z,7.20
2019-03-01T08:08:34.797Z,7.20
2019-03-01T08:11:04.080Z,7.30
2019-03-01T08:13:33.518Z,7.30
2019-03-01T08:16:02.973Z,7.30
2019-03-01T08:18:32.438Z,7.30
2019-03-01T08:21:06.407Z,7.40
2019-03-01T08:23:35.114Z,7.40
2019-03-01T08:26:06.248Z,7.40
2019-03-01T08:28:35.658Z,7.30
2019-03-01T08:31:05.116Z,7.50
2019-03-01T08:33:34.538Z,7.40
2019-03-01T08:36:05.852Z,7.40
2019-03-01T08:38:35.172Z,7.30
2019-03-01T08:41:04.631Z,7.30
2019-03-01T08:43:35.736Z,7.30
2019-03-01T08:46:05.476Z,7.30
2019-03-01T08:48:36.190Z,7.30
2019-03-01T08:51:06.002Z,7.30
2019-03-01T08:53:35.777Z,7.30
2019-03-01T08:56:06.026Z,7.20
2019-03-01T08:58:37.720Z,7.30
2019-03-01T09:01:09.695Z,7.30
2019-03-01T09:03:43.114Z,7.30
2019-03-01T09:06:12.543Z,7.30
2019-03-01T09:08:43.022Z,7.30
2019-03-01T09:11:13.066Z,7.30
2019-03-01T09:13:42.489Z,7.40
2019-03-01T09:16:11.930Z,7.40
2019-03-01T09:18:41.337Z,7.50
2019-03-01T09:21:12.953Z,7.60
2019-03-01T09:23:41.849Z,7.70
2019-03-01T09:26:11.338Z,7.70
2019-03-01T09:28:40.753Z,7.80
2019-03-01T09:31:10.221Z,7.80
2019-03-01T09:33:39.986Z,7.90
2019-03-01T09:36:21.372Z,7.90
2019-03-01T09:38:51.082Z,8.00
2019-03-01T09:41:20.524Z,8.10
2019-03-01T09:43:50.400Z,8.10
2019-03-01T09:46:20.852Z,8.20
2019-03-01T09:48:50.923Z,8.30
2019-03-01T09:51:20.359Z,8.40
2019-03-01T09:53:50.182Z,8.40
2019-03-01T09:56:19.730Z,8.40
2019-03-01T09:58:49.611Z,8.40
2019-03-01T10:01:19.898Z,8.50
2019-03-01T10:03:50.057Z,8.50
2019-03-01T10:06:19.485Z,8.40
2019-03-01T10:08:48.896Z,8.40
2019-03-01T10:11:18.671Z,8.30
2019-03-01T10:13:48.128Z,8.30
2019-03-01T10:16:17.553Z,8.30
2019-03-01T10:18:46.995Z,8.40
2019-03-01T10:21:16.433Z,8.50
2019-03-01T10:23:45.865Z,8.60
2019-03-01T10:26:16.032Z,8.60
2019-03-01T10:28:45.853Z,8.70
2019-03-01T10:31:15.307Z,8.80
2019-03-01T10:33:44.741Z,8.90
2019-03-01T10:36:14.225Z,8.90
2019-03-01T10:38:43.663Z,8.90
2019-03-01T10:41:13.425Z,9.00
2019-03-01T10:43:42.847Z,9.00
2019-03-01T10:46:12.277Z,9.00
2019-03-01T10:48:43.649Z,9.00
2019-03-01T10:51:13.049Z,8.90
2019-03-01T10:53:42.945Z,8.90
2019-03-01T10:56:12.362Z,8.90
2019-03-01T10:58:42.165Z,8.80
2019-03-01T11:01:11.603Z,8.70
2019-03-01T11:03:41.421Z,8.70
2019-03-01T11:06:10.841Z,8.70
2019-03-01T11:08:40.285Z,8.70
2019-03-01T11:11:10.065Z,8.70
2019-03-01T11:13:39.475Z,8.80
2019-03-01T11:16:08.984Z,8.90
2019-03-01T11:18:38.452Z,8.80
2019-03-01T11:21:07.973Z,8.80
2019-03-01T11:23:37.441Z,8.80
2019-03-01T11:26:06.880Z,8.80
2019-03-01T11:28:36.329Z,8.80
2019-03-01T11:31:05.774Z,8.70
2019-03-01T11:33:35.199Z,8.70
2019-03-01T11:36:04.964Z,8.70
2019-03-01T11:38:34.391Z,8.70
2019-03-01T11:41:03.821Z,8.80
2019-03-01T11:43:33.278Z,8.70
2019-03-01T11:46:02.714Z,8.70
2019-03-01T11:48:32.164Z,8.70
2019-03-01T11:51:01.602Z,8.70
2019-03-01T11:53:31.387Z,8.60
2019-03-01T11:56:00.815Z,8.70
2019-03-01T11:58:30.246Z,8.80
2019-03-01T12:00:59.689Z,8.80
2019-03-01T12:03:29.556Z,8.90
2019-03-01T12:05:58.989Z,8.90
2019-03-01T12:08:29.160Z,8.90
2019-03-01T12:10:58.867Z,9.00
2019-03-01T12:13:28.419Z,9.00
2019-03-01T12:15:57.844Z,9.10
2019-03-01T12:18:27.254Z,9.10
2019-03-01T12:20:56.743Z,9.10
2019-03-01T12:23:29.158Z,9.00
2019-03-01T12:25:58.618Z,9.00
2019-03-01T12:28:28.400Z,9.00
2019-03-01T12:30:57.814Z,8.90
2019-03-01T12:33:27.226Z,8.80
2019-03-01T12:35:56.637Z,8.80
2019-03-01T12:38:26.101Z,8.80
2019-03-01T12:40:55.507Z,8.80
2019-03-01T12:43:24.950Z,8.80
2019-03-01T12:45:54.362Z,8.70
2019-03-01T12:48:23.890Z,8.70
2019-03-01T12:50:53.295Z,8.70
2019-03-01T12:53:23.071Z,8.70
2019-03-01T12:55:52.545Z,8.70
2019-03-01T12:58:21.970Z,8.70
2019-03-01T13:00:51.383Z,8.70
2019-03-01T13:03:20.836Z,8.60
2019-03-01T13:05:50.251Z,8.60
2019-03-01T13:08:19.717Z,8.60
2019-03-01T13:10:49.140Z,8.60
2019-03-01T13:13:18.572Z,8.60
2019-03-01T13:15:49.632Z,8.60
2019-03-01T13:18:19.109Z,8.60
2019-03-01T13:20:48.524Z,8.70
2019-03-01T13:23:18.003Z,8.70
2019-03-01T13:25:47.414Z,8.70
2019-03-01T13:28:16.875Z,8.80
2019-03-01T13:30:46.636Z,8.80
2019-03-01T13:33:16.047Z,8.70
2019-03-01T13:35:45.474Z,8.60
2019-03-01T13:38:18.068Z,8.70
2019-03-01T13:40:47.533Z,8.70
2019-03-01T13:43:16.954Z,8.70
2019-03-01T13:45:47.396Z,8.70
2019-03-01T13:48:19.026Z,8.70
2019-03-01T13:50:48.857Z,8.70
2019-03-01T13:53:18.297Z,8.60
2019-03-01T13:55:47.749Z,8.30
2019-03-01T13:58:17.161Z,8.10
2019-03-01T14:00:48.776Z,8.00
2019-03-01T14:03:20.827Z,7.90
2019-03-01T14:05:51.104Z,7.80
2019-03-01T14:08:20.185Z,7.80
2019-03-01T14:10:49.592Z,7.80
2019-03-01T14:13:19.014Z,7.80
2019-03-01T14:15:50.393Z,7.90
2019-03-01T14:18:19.922Z,8.00
2019-03-01T14:20:49.716Z,7.90
2019-03-01T14:23:21.235Z,7.90
2019-03-01T14:25:50.329Z,7.90
2019-03-01T14:28:19.753Z,7.90
2019-03-01T14:30:49.187Z,7.90
2019-03-01T14:33:18.961Z,7.90
2019-03-01T14:35:48.686Z,7.80
2019-03-01T14:38:18.158Z,7.80
2019-03-01T14:40:47.609Z,7.80
2019-03-01T14:43:20.258Z,7.80
2019-03-01T14:45:49.112Z,7.80
2019-03-01T14:48:18.524Z,7.80
2019-03-01T14:50:49.054Z,7.70
2019-03-01T14:53:18.929Z,7.60
2019-03-01T14:55:52.285Z,7.60
2019-03-01T14:58:25.750Z,7.60
2019-03-01T15:01:15.352Z,7.50
2019-03-01T15:03:44.814Z,7.40
2019-03-01T15:06:15.443Z,7.40
2019-03-01T15:08:46.055Z,7.30
2019-03-01T15:11:20.519Z,7.30
2019-03-01T15:13:51.298Z,7.20
2019-03-01T15:16:20.728Z,7.20
2019-03-01T15:18:50.237Z,7.10
2019-03-01T15:21:19.713Z,7.00
2019-03-01T15:23:49.251Z,7.00
2019-03-01T15:26:18.744Z,7.00
2019-03-01T15:29:06.066Z,7.00
2019-03-01T15:31:35.489Z,7.00
2019-03-01T15:34:04.989Z,6.90
2019-03-01T15:36:34.445Z,7.00
2019-03-01T15:39:05.857Z,7.00
2019-03-01T15:41:35.498Z,7.00
2019-03-01T15:44:05.560Z,6.90
2019-03-01T15:46:35.008Z,7.00
2019-03-01T15:49:05.240Z,7.00
2019-03-01T15:51:38.172Z,6.90
2019-03-01T15:54:06.818Z,6.90
2019-03-01T15:56:39.499Z,6.80
2019-03-01T15:59:09.478Z,6.80
2019-03-01T16:01:38.494Z,6.80
2019-03-01T16:04:07.915Z,6.80
2019-03-01T16:06:37.658Z,6.70
2019-03-01T16:09:13.462Z,6.70
2019-03-01T16:11:43.637Z,6.60
2019-03-01T16:14:13.144Z,6.60
2019-03-01T16:16:45.795Z,6.60
2019-03-01T16:19:14.597Z,6.50
2019-03-01T16:21:44.662Z,6.40
2019-03-01T16:24:14.210Z,6.30
2019-03-01T16:26:43.668Z,6.20
2019-03-01T16:29:13.383Z,6.20
2019-03-01T16:31:42.904Z,6.30
2019-03-01T16:34:12.346Z,6.10
2019-03-01T16:36:44.226Z,6.10
2019-03-01T16:39:16.376Z,6.10
2019-03-01T16:41:45.528Z,6.10
2019-03-01T16:44:14.968Z,6.10
2019-03-01T16:46:44.439Z,6.00
2019-03-01T16:49:13.938Z,5.90
2019-03-01T16:51:43.521Z,5.90
2019-03-01T16:54:16.285Z,5.90
2019-03-01T16:56:44.107Z,5.80
2019-03-01T16:59:13.635Z,5.80
2019-03-01T17:01:43.126Z,5.80
2019-03-01T17:04:13.043Z,5.80
2019-03-01T17:06:45.494Z,5.80
2019-03-01T17:09:15.577Z,5.90
2019-03-01T17:11:45.051Z,5.90
2019-03-01T17:14:15.945Z,5.80
2019-03-01T17:16:45.561Z,5.80
2019-03-01T17:19:14.996Z,5.80
2019-03-01T17:21:47.653Z,5.70
2019-03-01T17:24:17.145Z,5.60
2019-03-01T17:26:46.615Z,5.60
2019-03-01T17:29:16.053Z,5.60
2019-03-01T17:31:45.509Z,5.60
2019-03-01T17:34:14.975Z,5.60
2019-03-01T17:36:44.410Z,5.50
2019-03-01T17:39:16.658Z,5.60
2019-03-01T17:41:48.242Z,5.50
2019-03-01T17:44:16.822Z,5.50
2019-03-01T17:46:46.665Z,5.50
2019-03-01T17:49:16.141Z,5.50
2019-03-01T17:51:45.675Z,5.40
2019-03-01T17:54:15.496Z,5.40
2019-03-01T17:56:44.953Z,5.30
2019-03-01T17:59:14.423Z,5.30
2019-03-01T18:01:43.929Z,5.20
2019-03-01T18:04:13.372Z,5.10
2019-03-01T18:06:43.156Z,5.10
2019-03-01T18:09:13.234Z,5.00
2019-03-01T18:11:44.570Z,4.90
2019-03-01T18:14:14.914Z,4.90
2019-03-01T18:16:44.461Z,4.80
2019-03-01T18:19:13.857Z,4.80
2019-03-01T18:21:46.345Z,4.90
2019-03-01T18:24:15.209Z,4.90
2019-03-01T18:26:44.778Z,4.90
2019-03-01T18:29:14.239Z,4.90
2019-03-01T18:31:43.665Z,4.90
2019-03-01T18:34:13.438Z,4.90
2019-03-01T18:36:42.918Z,4.80
2019-03-01T18:39:12.663Z,4.70
2019-03-01T18:41:42.092Z,4.60
2019-03-01T18:44:11.556Z,4.60
2019-03-01T18:46:41.037Z,4.50
2019-03-01T18:49:10.869Z,4.50
2019-03-01T18:51:43.261Z,4.50
2019-03-01T18:54:11.415Z,4.60
2019-03-01T18:56:40.913Z,4.60
2019-03-01T18:59:10.430Z,4.60
2019-03-01T19:01:42.930Z,4.50
2019-03-01T19:04:12.941Z,4.50
2019-03-01T19:06:42.522Z,4.60
2019-03-01T19:09:16.125Z,4.60
2019-03-01T19:11:43.814Z,4.60
2019-03-01T19:14:13.421Z,4.70
2019-03-01T19:16:42.988Z,4.50
2019-03-01T19:19:14.807Z,4.60
2019-03-01T19:21:44.393Z,4.60
2019-03-01T19:24:13.884Z,4.60
2019-03-01T19:26:43.403Z,4.60
2019-03-01T19:29:12.949Z,4.60
2019-03-01T19:31:42.824Z,4.50
2019-03-01T19:34:13.058Z,4.40
2019-03-01T19:36:43.888Z,4.50
2019-03-01T19:39:23.175Z,4.50
2019-03-01T19:41:54.469Z,4.50
2019-03-01T19:44:25.643Z,4.50
2019-03-01T19:46:55.876Z,4.40
2019-03-01T19:49:25.362Z,4.40
2019-03-01T19:51:54.837Z,4.40
2019-03-01T19:54:24.361Z,4.30
2019-03-01T19:57:01.557Z,4.30
2019-03-01T19:59:29.940Z,4.20
2019-03-01T20:01:59.476Z,4.30
2019-03-01T20:04:31.060Z,4.20
2019-03-01T20:07:01.404Z,4.20
2019-03-01T20:09:31.483Z,4.20
2019-03-01T20:12:02.698Z,4.30
2019-03-01T20:14:34.536Z,4.30
2019-03-01T20:17:04.546Z,4.30
2019-03-01T20:19:34.095Z,4.30
2019-03-01T20:22:04.080Z,4.40
2019-03-01T20:24:33.635Z,4.30
2019-03-01T20:27:03.892Z,4.10
2019-03-01T20:29:33.727Z,4.00
2019-03-01T20:32:04.445Z,3.90
2019-03-01T20:34:34.771Z,4.00
2019-03-01T20:37:05.731Z,3.90
2019-03-01T20:39:35.591Z,3.90
2019-03-01T20:42:05.065Z,3.80
2019-03-01T20:44:34.634Z,3.80
2019-03-01T20:47:04.247Z,3.70
2019-03-01T20:49:35.768Z,3.60
2019-03-01T20:52:04.867Z,3.60
2019-03-01T20:54:34.416Z,3.60
2019-03-01T20:57:03.950Z,3.60
2019-03-01T20:59:36.294Z,3.50
2019-03-01T21:02:06.241Z,3.40
2019-03-01T21:04:36.654Z,3.40
2019-03-01T21:07:06.812Z,3.30
2019-03-01T21:09:37.694Z,3.40
2019-03-01T21:12:07.477Z,3.40
2019-03-01T21:14:37.599Z,3.50
2019-03-01T21:17:07.167Z,3.50
2019-03-01T21:19:36.627Z,3.50
2019-03-01T21:22:06.522Z,3.40
2019-03-01T21:24:35.967Z,3.40
2019-03-01T21:27:05.522Z,3.40
2019-03-01T21:29:35.461Z,3.40
2019-03-01T21:32:05.025Z,3.40
2019-03-01T21:34:38.083Z,3.40
2019-03-01T21:37:06.094Z,3.40
2019-03-01T21:39:35.635Z,3.50
2019-03-01T21:42:05.055Z,3.40
2019-03-01T21:44:34.583Z,3.40
2019-03-01T21:47:06.999Z,3.40
2019-03-01T21:49:35.166Z,3.40
2019-03-01T21:52:04.718Z,3.40
2019-03-01T21:54:34.209Z,3.40
2019-03-01T21:57:03.777Z,3.40
2019-03-01T21:59:33.312Z,3.40
2019-03-01T22:02:02.775Z,3.40
2019-03-01T22:04:51.616Z,3.40
2019-03-01T22:07:21.519Z,3.50
2019-03-01T22:09:51.190Z,3.40
2019-03-01T22:12:24.645Z,3.40
2019-03-01T22:14:53.413Z,3.40
2019-03-01T22:17:22.897Z,3.30
2019-03-01T22:19:52.369Z,3.20
2019-03-01T22:22:21.886Z,3.20
2019-03-01T22:24:51.756Z,3.20
2019-03-01T22:27:21.503Z,3.30
2019-03-01T22:29:52.373Z,3.30
2019-03-01T22:32:21.848Z,3.20
2019-03-01T22:34:51.283Z,3.20
2019-03-01T22:37:20.899Z,3.20
2019-03-01T22:39:51.454Z,3.20
2019-03-01T22:42:20.944Z,3.20
2019-03-01T22:44:50.909Z,3.30
2019-03-01T22:47:20.609Z,3.30
2019-03-01T22:49:50.033Z,3.20
2019-03-01T22:52:19.823Z,3.20
2019-03-01T22:54:49.233Z,3.20
2019-03-01T22:57:22.453Z,3.20
2019-03-01T22:59:49.819Z,3.20
2019-03-01T23:02:20.899Z,3.20
2019-03-01T23:04:50.728Z,3.10
2019-03-01T23:07:23.410Z,3.20
2019-03-01T23:09:51.255Z,3.20
2019-03-01T23:12:20.662Z,3.20
2019-03-01T23:14:50.114Z,3.10
2019-03-01T23:17:19.547Z,3.10
2019-03-01T23:19:51.615Z,3.00
2019-03-01T23:22:20.091Z,3.00
2019-03-01T23:24:49.566Z,3.10
2019-03-01T23:27:18.971Z,3.00
2019-03-01T23:29:50.961Z,3.10
2019-03-01T23:32:19.907Z,3.10
2019-03-01T23:34:49.323Z,3.10
2019-03-01T23:37:18.778Z,3.10
2019-03-01T23:39:48.296Z,3.20
2019-03-01T23:42:20.770Z,3.20
2019-03-01T23:44:49.178Z,3.10
2019-03-01T23:47:18.597Z,3.10
2019-03-01T23:49:48.129Z,3.10
2019-03-01T23:52:19.595Z,3.10
2019-03-01T23:54:48.607Z,3.10
2019-03-01T23:57:18.411Z,3.10
2019-03-01T23:59:47.845Z,3.10
